Time;durP1;ratioP1;P1;durP2;ratioP2;P2;SDS_P1;SDS_P2;PMS_P1;PMS_P2;Temp;Humidity;BMP_temperature;BMP_pressure;BME280_temperature;BME280_humidity;BME280_pressure;Samples;Min_cycle;Max_cycle;Signal;HPM_P1;HPM_P2
2021/08/22 00:02:00;;;;;;;2.67;2.07;;;19.20;98.00;;;;;;5073408;28;20500;-74
2021/08/22 00:04:27;;;;;;;1.83;1.47;;;19.20;98.00;;;;;;5073642;28;20453;-74
2021/08/22 00:06:54;;;;;;;1.57;1.47;;;19.20;98.00;;;;;;5073222;28;20520;-73
2021/08/22 00:09:22;;;;;;;2.23;1.83;;;19.10;98.00;;;;;;5073007;28;20484;-74
2021/08/22 00:11:50;;;;;;;1.60;1.40;;;19.10;98.00;;;;;;5073204;28;20457;-73
2021/08/22 00:14:17;;;;;;;2.50;1.43;;;19.10;98.00;;;;;;5073207;28;20869;-73
2021/08/22 00:16:45;;;;;;;2.37;1.83;;;19.30;98.00;;;;;;5072956;28;20494;-73
2021/08/22 00:19:13;;;;;;;2.50;1.33;;;19.40;98.00;;;;;;5073049;28;20514;-74
2021/08/22 00:21:40;;;;;;;1.90;1.70;;;19.40;98.00;;;;;;5073028;28;20532;-74
2021/08/22 00:24:07;;;;;;;2.10;1.70;;;19.50;98.00;;;;;;5073019;28;20567;-74
2021/08/22 00:26:34;;;;;;;1.67;1.37;;;19.50;98.00;;;;;;5072406;28;20523;-73
2021/08/22 00:29:01;;;;;;;3.53;2.10;;;19.50;98.00;;;;;;5072903;28;20515;-74
2021/08/22 00:31:28;;;;;;;2.47;1.80;;;19.50;98.00;;;;;;5072838;28;20542;-74
2021/08/22 00:33:55;;;;;;;2.03;1.67;;;19.50;98.00;;;;;;5072696;28;20500;-74
2021/08/22 00:36:24;;;;;;;2.53;1.80;;;19.40;98.00;;;;;;5072762;28;20483;-73
2021/08/22 00:38:51;;;;;;;1.83;1.73;;;19.30;98.00;;;;;;5072533;28;21028;-74
2021/08/22 00:41:17;;;;;;;1.87;1.60;;;19.30;98.00;;;;;;5072546;28;20553;-74
2021/08/22 00:43:46;;;;;;;2.33;2.07;;;19.50;98.00;;;;;;5072504;28;20449;-74
2021/08/22 00:46:13;;;;;;;2.63;1.80;;;19.80;98.00;;;;;;5072618;28;20527;-73
2021/08/22 00:48:40;;;;;;;1.70;1.60;;;19.50;98.00;;;;;;5072297;28;20496;-74
2021/08/22 00:51:07;;;;;;;1.50;1.40;;;19.10;98.00;;;;;;5072602;28;20453;-73
2021/08/22 00:53:38;;;;;;;1.70;1.60;;;18.80;98.00;;;;;;5072403;28;20460;-72
2021/08/22 00:56:06;;;;;;;1.30;1.30;;;18.60;98.00;;;;;;5072362;28;20740;-72
2021/08/22 00:58:33;;;;;;;1.40;1.30;;;18.20;98.00;;;;;;5072195;28;20452;-73
2021/08/22 01:01:04;;;;;;;1.30;1.10;;;17.80;98.00;;;;;;5072114;28;20476;-73
2021/08/22 01:03:40;;;;;;;1.10;1.03;;;17.70;98.00;;;;;;5072269;28;20509;-73
2021/08/22 01:06:14;;;;;;;1.40;1.10;;;17.50;98.00;;;;;;5071991;28;20480;-73
2021/08/22 01:08:46;;;;;;;1.30;1.20;;;17.40;98.00;;;;;;5071912;28;20573;-73
2021/08/22 01:11:17;;;;;;;1.50;1.40;;;17.50;98.00;;;;;;5072190;28;20449;-74
2021/08/22 01:13:48;;;;;;;1.30;1.20;;;17.70;98.00;;;;;;5071846;28;20522;-73
2021/08/22 01:16:20;;;;;;;1.20;1.10;;;17.70;98.00;;;;;;5072170;28;21154;-73
2021/08/22 01:18:49;;;;;;;1.20;1.10;;;17.80;98.00;;;;;;5071914;28;20489;-73
2021/08/22 01:21:19;;;;;;;1.47;1.20;;;17.80;98.00;;;;;;5071961;28;20448;-73
2021/08/22 01:23:50;;;;;;;1.10;1.00;;;17.80;98.00;;;;;;5071983;28;21030;-73
2021/08/22 01:26:19;;;;;;;2.23;1.30;;;17.80;98.00;;;;;;5054650;28;20492;-74
2021/08/22 01:28:47;;;;;;;1.20;1.00;;;17.80;98.00;;;;;;5071759;28;20477;-73
2021/08/22 01:31:18;;;;;;;1.30;1.27;;;17.80;98.00;;;;;;5071221;28;20544;-74
2021/08/22 01:33:49;;;;;;;2.23;1.20;;;17.80;98.00;;;;;;5071796;28;20883;-73
2021/08/22 01:36:17;;;;;;;1.90;1.67;;;17.80;98.00;;;;;;5071843;28;20493;-73
2021/08/22 01:38:44;;;;;;;1.30;1.00;;;17.70;98.00;;;;;;5071500;28;20489;-73
2021/08/22 01:41:12;;;;;;;1.10;1.00;;;17.70;98.00;;;;;;5071474;28;20461;-73
2021/08/22 01:43:42;;;;;;;1.30;1.20;;;17.70;98.00;;;;;;5071421;28;20485;-73
2021/08/22 01:46:10;;;;;;;1.10;1.00;;;17.70;98.00;;;;;;5071264;28;20576;-73
2021/08/22 01:48:39;;;;;;;1.20;1.13;;;17.70;98.00;;;;;;5071255;28;21036;-74
2021/08/22 01:51:09;;;;;;;1.43;1.23;;;17.70;98.00;;;;;;5071212;28;20540;-73
2021/08/22 01:53:37;;;;;;;1.60;1.10;;;17.70;98.00;;;;;;5071174;28;20496;-73
2021/08/22 01:56:04;;;;;;;1.50;1.10;;;17.70;98.00;;;;;;5071360;28;20457;-73
2021/08/22 01:58:31;;;;;;;1.57;1.33;;;17.60;98.00;;;;;;5070993;28;20456;-73
2021/08/22 02:00:58;;;;;;;1.70;1.43;;;17.60;98.00;;;;;;5071214;28;20883;-73
2021/08/22 02:03:35;;;;;;;1.20;1.10;;;17.80;98.00;;;;;;5070990;28;20881;-73
2021/08/22 02:06:10;;;;;;;1.30;1.23;;;17.80;98.00;;;;;;5071051;28;20491;-73
2021/08/22 02:08:37;;;;;;;1.20;1.10;;;17.90;98.00;;;;;;5071019;28;20467;-73
2021/08/22 02:11:11;;;;;;;1.20;1.10;;;18.00;98.00;;;;;;5071021;28;20542;-73
2021/08/22 02:13:40;;;;;;;1.20;1.10;;;18.00;98.00;;;;;;5070829;28;20534;-73
2021/08/22 02:16:11;;;;;;;1.30;1.20;;;18.00;98.00;;;;;;5071086;28;20485;-73
2021/08/22 02:18:39;;;;;;;1.80;1.27;;;18.00;98.00;;;;;;5053108;28;20539;-74
2021/08/22 02:21:08;;;;;;;1.20;1.10;;;18.00;98.00;;;;;;5070922;28;20493;-73
2021/08/22 02:23:38;;;;;;;1.40;1.20;;;18.00;98.00;;;;;;5053397;28;20499;-73
2021/08/22 02:26:05;;;;;;;1.20;1.20;;;18.00;98.00;;;;;;5070913;28;20546;-73
2021/08/22 02:28:33;;;;;;;1.30;1.20;;;18.00;98.00;;;;;;5070833;28;21016;-73
2021/08/22 02:31:00;;;;;;;1.73;1.40;;;18.10;98.00;;;;;;5070784;28;20460;-73
2021/08/22 02:33:27;;;;;;;1.30;1.30;;;18.10;98.00;;;;;;5070697;28;20538;-73
2021/08/22 02:35:54;;;;;;;1.33;1.13;;;18.30;98.00;;;;;;5070911;28;20493;-73
2021/08/22 02:38:22;;;;;;;1.60;1.30;;;18.20;98.00;;;;;;5070992;28;20452;-74
2021/08/22 02:40:49;;;;;;;2.03;1.50;;;18.00;98.00;;;;;;5053224;28;20510;-73
2021/08/22 02:43:16;;;;;;;3.17;1.40;;;18.00;98.00;;;;;;5072434;28;20449;-73
2021/08/22 02:45:43;;;;;;;1.40;1.20;;;17.90;98.00;;;;;;5075140;28;20464;-73
2021/08/22 02:48:13;;;;;;;1.30;1.23;;;17.80;98.00;;;;;;5075041;28;20523;-74
2021/08/22 02:50:40;;;;;;;1.53;1.10;;;17.70;98.00;;;;;;5056622;28;20468;-73
2021/08/22 02:53:10;;;;;;;1.20;1.07;;;17.70;98.00;;;;;;5074784;28;20739;-73
2021/08/22 02:55:38;;;;;;;1.50;1.30;;;17.80;98.00;;;;;;5074643;28;20982;-74
2021/08/22 02:58:05;;;;;;;3.20;1.40;;;17.80;98.00;;;;;;5074492;28;20488;-73
2021/08/22 03:00:32;;;;;;;1.20;1.07;;;17.80;98.00;;;;;;5074600;28;20538;-73
2021/08/22 03:02:59;;;;;;;1.77;1.10;;;17.70;98.00;;;;;;5074487;28;20491;-73
2021/08/22 03:05:26;;;;;;;1.30;1.20;;;17.80;98.00;;;;;;5074502;28;20491;-73
2021/08/22 03:07:53;;;;;;;1.47;1.43;;;17.90;98.00;;;;;;5074292;28;20520;-72
2021/08/22 03:10:20;;;;;;;1.20;1.10;;;18.00;98.00;;;;;;5074389;28;20488;-74
2021/08/22 03:12:48;;;;;;;1.30;1.20;;;18.00;98.00;;;;;;5056308;28;20452;-73
2021/08/22 03:15:15;;;;;;;1.40;1.30;;;18.00;98.00;;;;;;5074408;28;20456;-73
2021/08/22 03:17:42;;;;;;;1.30;1.20;;;18.00;98.00;;;;;;5073990;28;20854;-73
2021/08/22 03:20:10;;;;;;;1.60;1.57;;;18.10;98.00;;;;;;5074333;28;20461;-73
2021/08/22 03:22:37;;;;;;;1.40;1.30;;;18.00;98.00;;;;;;5073963;28;20461;-74
2021/08/22 03:25:07;;;;;;;1.40;1.40;;;18.00;98.00;;;;;;5074060;28;20948;-73
2021/08/22 03:27:34;;;;;;;1.20;1.10;;;18.00;98.00;;;;;;5053542;28;20480;-73
2021/08/22 03:30:02;;;;;;;1.40;1.27;;;18.00;98.00;;;;;;5073839;28;20495;-74
2021/08/22 03:32:29;;;;;;;1.20;1.03;;;17.90;98.00;;;;;;5073820;28;20498;-73
2021/08/22 03:34:57;;;;;;;2.53;1.50;;;17.80;98.00;;;;;;5073850;28;20933;-73
2021/08/22 03:37:24;;;;;;;1.50;1.10;;;17.70;98.00;;;;;;5073785;28;20453;-74
2021/08/22 03:39:51;;;;;;;1.20;1.10;;;17.70;98.00;;;;;;5073662;28;20456;-73
2021/08/22 03:42:19;;;;;;;1.30;1.20;;;17.80;98.00;;;;;;5073956;28;20456;-73
2021/08/22 03:44:45;;;;;;;1.20;1.17;;;17.80;98.00;;;;;;5073829;28;20885;-73
2021/08/22 03:47:14;;;;;;;1.47;1.23;;;17.80;98.00;;;;;;5073674;28;20523;-73
2021/08/22 03:49:41;;;;;;;1.50;1.27;;;17.90;98.00;;;;;;5073604;28;20488;-74
2021/08/22 03:52:09;;;;;;;1.20;1.10;;;18.00;98.00;;;;;;5073562;28;20448;-73
2021/08/22 03:54:36;;;;;;;1.43;1.20;;;18.00;98.00;;;;;;5072836;28;20504;-73
2021/08/22 03:57:03;;;;;;;1.53;1.10;;;17.90;98.00;;;;;;5073507;28;20552;-73
2021/08/22 03:59:30;;;;;;;1.20;1.10;;;17.80;98.00;;;;;;5073630;28;20457;-73
2021/08/22 04:01:56;;;;;;;1.43;1.30;;;17.90;98.00;;;;;;5073497;28;20456;-74
2021/08/22 04:04:25;;;;;;;1.20;1.13;;;17.90;98.00;;;;;;5055752;28;20492;-73
2021/08/22 04:06:52;;;;;;;1.50;1.30;;;17.90;98.00;;;;;;5073476;28;21006;-73
2021/08/22 04:09:20;;;;;;;1.70;1.30;;;17.80;98.00;;;;;;5073425;28;20499;-73
2021/08/22 04:11:51;;;;;;;1.30;1.10;;;17.70;98.00;;;;;;5073400;28;20500;-73
2021/08/22 04:14:19;;;;;;;2.07;1.30;;;17.80;98.00;;;;;;5073209;28;20975;-73
2021/08/22 04:16:47;;;;;;;1.87;1.40;;;17.60;98.00;;;;;;5055545;28;20731;-73
2021/08/22 04:19:14;;;;;;;1.30;1.10;;;17.70;98.00;;;;;;5072936;28;20448;-73
2021/08/22 04:21:42;;;;;;;2.10;1.30;;;17.70;98.00;;;;;;5072931;28;20502;-73
2021/08/22 04:24:15;;;;;;;1.50;1.30;;;17.70;98.00;;;;;;5072878;28;20476;-73
2021/08/22 04:26:44;;;;;;;1.20;1.10;;;17.60;98.00;;;;;;5070934;28;20468;-73
2021/08/22 04:29:11;;;;;;;1.20;1.13;;;17.50;98.00;;;;;;5072792;28;20460;-73
2021/08/22 04:31:38;;;;;;;1.43;1.30;;;17.60;98.00;;;;;;5055246;28;20734;-73
2021/08/22 04:34:05;;;;;;;1.20;1.00;;;17.60;98.00;;;;;;5072673;28;20488;-73
2021/08/22 04:36:32;;;;;;;2.13;1.20;;;17.80;98.00;;;;;;5072776;28;20519;-73
2021/08/22 04:39:00;;;;;;;1.47;1.40;;;17.80;98.00;;;;;;5072539;28;20457;-74
2021/08/22 04:41:27;;;;;;;1.43;1.20;;;17.90;98.00;;;;;;5072589;28;20453;-73
2021/08/22 04:43:54;;;;;;;1.20;1.00;;;17.90;98.00;;;;;;5072585;28;20484;-74
2021/08/22 04:46:22;;;;;;;1.30;1.17;;;17.90;98.00;;;;;;5072598;28;20461;-73
2021/08/22 04:48:49;;;;;;;1.30;1.30;;;17.90;98.00;;;;;;5072347;28;20516;-73
2021/08/22 04:51:16;;;;;;;1.63;1.53;;;17.90;98.00;;;;;;5072513;28;20449;-74
2021/08/22 04:53:43;;;;;;;1.53;1.03;;;17.80;98.00;;;;;;5054400;28;20527;-73
2021/08/22 04:56:11;;;;;;;1.20;1.07;;;17.80;98.00;;;;;;5072382;28;20750;-73
2021/08/22 04:58:38;;;;;;;1.60;1.43;;;17.70;98.00;;;;;;5072200;28;20528;-74
2021/08/22 05:01:05;;;;;;;1.20;1.10;;;17.70;98.00;;;;;;5072250;28;20460;-73
2021/08/22 05:03:32;;;;;;;1.67;1.20;;;17.60;98.00;;;;;;5072163;28;20951;-73
2021/08/22 05:05:59;;;;;;;2.20;1.57;;;17.60;98.00;;;;;;5071607;28;20540;-73
2021/08/22 05:08:26;;;;;;;1.40;1.37;;;17.80;98.00;;;;;;5071553;28;20585;-73
2021/08/22 05:10:55;;;;;;;1.33;1.27;;;17.80;98.00;;;;;;5072071;28;20515;-74
2021/08/22 05:13:23;;;;;;;1.53;1.30;;;18.00;98.00;;;;;;5071987;28;20457;-74
2021/08/22 05:15:52;;;;;;;1.50;1.30;;;18.00;98.00;;;;;;5071556;28;20465;-73
2021/08/22 05:18:21;;;;;;;1.30;1.20;;;18.00;98.00;;;;;;5071964;28;20460;-73
2021/08/22 05:20:48;;;;;;;1.60;1.27;;;18.20;98.00;;;;;;5071738;28;20453;-73
2021/08/22 05:23:16;;;;;;;1.53;1.40;;;18.30;98.00;;;;;;5071842;28;20872;-73
2021/08/22 05:25:43;;;;;;;2.10;1.60;;;18.30;98.00;;;;;;5054375;28;20452;-73
2021/08/22 05:28:10;;;;;;;1.30;1.20;;;18.20;98.00;;;;;;5071883;28;20480;-73
2021/08/22 05:30:38;;;;;;;1.20;1.00;;;18.20;98.00;;;;;;5071947;28;20492;-73
2021/08/22 05:33:05;;;;;;;1.40;1.20;;;18.20;98.00;;;;;;5071571;28;20526;-73
2021/08/22 05:35:32;;;;;;;1.43;1.33;;;18.10;98.00;;;;;;5071568;28;20493;-73
2021/08/22 05:37:59;;;;;;;1.20;1.10;;;18.20;98.00;;;;;;5071405;28;20460;-73
2021/08/22 05:40:26;;;;;;;2.07;1.30;;;18.20;98.00;;;;;;5071516;28;20480;-73
2021/08/22 05:42:53;;;;;;;1.87;1.30;;;18.20;98.00;;;;;;5071388;28;20489;-73
2021/08/22 05:45:20;;;;;;;1.30;1.20;;;18.30;98.00;;;;;;5071399;28;20515;-73
2021/08/22 05:47:48;;;;;;;1.90;1.70;;;18.30;98.00;;;;;;5053121;28;20519;-73
2021/08/22 05:50:15;;;;;;;1.20;1.20;;;18.20;98.00;;;;;;5071287;28;20491;-73
2021/08/22 05:52:42;;;;;;;2.67;1.77;;;18.20;98.00;;;;;;5070850;28;20522;-73
2021/08/22 05:55:11;;;;;;;2.53;1.47;;;18.20;98.00;;;;;;5071306;28;20489;-74
2021/08/22 05:57:38;;;;;;;1.70;1.30;;;18.30;98.00;;;;;;5071288;28;20484;-73
2021/08/22 06:00:08;;;;;;;1.83;1.27;;;18.30;98.00;;;;;;5071348;28;20457;-75
2021/08/22 06:02:36;;;;;;;1.33;1.20;;;18.30;98.00;;;;;;5071115;28;20488;-75
2021/08/22 06:05:05;;;;;;;1.47;1.20;;;18.30;98.00;;;;;;5071117;28;20489;-74
2021/08/22 06:07:32;;;;;;;1.20;1.13;;;18.40;98.00;;;;;;5071080;28;20484;-75
2021/08/22 06:09:59;;;;;;;1.40;1.20;;;18.40;98.00;;;;;;5071216;28;20448;-75
2021/08/22 06:12:27;;;;;;;1.47;1.27;;;18.40;98.00;;;;;;5071039;28;20484;-75
2021/08/22 06:14:54;;;;;;;1.37;1.23;;;18.30;98.00;;;;;;5071134;28;20457;-74
2021/08/22 06:17:28;;;;;;;1.97;1.40;;;18.40;98.00;;;;;;5070803;28;20697;-75
2021/08/22 06:19:55;;;;;;;1.50;1.30;;;18.60;98.00;;;;;;5071075;28;20457;-75
2021/08/22 06:22:24;;;;;;;1.40;1.27;;;18.70;98.00;;;;;;5070806;28;20492;-75
2021/08/22 06:24:51;;;;;;;1.40;1.30;;;18.80;98.00;;;;;;5070920;28;20818;-75
2021/08/22 06:27:18;;;;;;;1.70;1.60;;;18.80;98.00;;;;;;5070940;28;20540;-75
2021/08/22 06:29:45;;;;;;;1.33;1.27;;;18.70;98.00;;;;;;5070827;28;20452;-75
2021/08/22 06:32:12;;;;;;;1.30;1.20;;;18.80;98.00;;;;;;5070864;28;20507;-75
2021/08/22 06:34:39;;;;;;;1.40;1.30;;;18.70;98.00;;;;;;5070657;28;20453;-75
2021/08/22 06:37:06;;;;;;;1.57;1.47;;;18.80;98.00;;;;;;5070824;28;20520;-75
2021/08/22 06:39:40;;;;;;;1.40;1.37;;;18.80;98.00;;;;;;5070783;28;20485;-75
2021/08/22 06:42:08;;;;;;;1.60;1.50;;;18.80;98.00;;;;;;5053837;28;20538;-75
2021/08/22 06:44:38;;;;;;;1.20;1.10;;;18.80;98.00;;;;;;5071113;28;20502;-75
2021/08/22 06:47:07;;;;;;;1.90;1.43;;;18.80;98.00;;;;;;5071273;28;20464;-75
2021/08/22 06:49:34;;;;;;;1.87;1.40;;;18.80;98.00;;;;;;5070833;28;20548;-75
2021/08/22 06:52:01;;;;;;;1.73;1.40;;;18.80;98.00;;;;;;5070672;28;20460;-75
2021/08/22 06:54:28;;;;;;;1.20;1.10;;;19.00;98.00;;;;;;5070791;28;20935;-75
2021/08/22 06:56:56;;;;;;;1.40;1.20;;;19.20;98.00;;;;;;5070796;28;20526;-75
2021/08/22 06:59:23;;;;;;;1.50;1.23;;;19.30;98.00;;;;;;5070558;28;20859;-75
2021/08/22 07:01:50;;;;;;;1.40;1.10;;;19.50;98.00;;;;;;5070465;28;20507;-75
2021/08/22 07:04:17;;;;;;;1.43;1.33;;;19.50;98.00;;;;;;5070565;28;20491;-75
2021/08/22 07:06:44;;;;;;;1.47;1.43;;;19.40;98.00;;;;;;5070507;28;20722;-75
2021/08/22 07:09:11;;;;;;;2.47;1.70;;;19.30;98.00;;;;;;5070332;28;20570;-75
2021/08/22 07:11:38;;;;;;;1.60;1.30;;;19.20;98.00;;;;;;5070440;28;20535;-74
2021/08/22 07:14:06;;;;;;;1.80;1.70;;;19.20;98.00;;;;;;5070508;28;20489;-74
2021/08/22 07:16:34;;;;;;;1.80;1.43;;;19.20;98.00;;;;;;5070401;28;21028;-75
2021/08/22 07:19:01;;;;;;;1.60;1.37;;;19.30;98.00;;;;;;5070268;28;20464;-75
2021/08/22 07:21:32;;;;;;;1.50;1.23;;;19.20;98.00;;;;;;5070322;28;20461;-76
2021/08/22 07:23:59;;;;;;;1.60;1.50;;;19.20;98.00;;;;;;5070257;28;20461;-76
2021/08/22 07:26:26;;;;;;;1.20;1.10;;;19.20;98.00;;;;;;5070377;28;20488;-75
2021/08/22 07:28:53;;;;;;;2.03;1.50;;;19.20;98.00;;;;;;5070210;28;20512;-74
2021/08/22 07:31:21;;;;;;;1.80;1.70;;;19.20;98.00;;;;;;5073279;28;20878;-75
2021/08/22 07:33:48;;;;;;;1.97;1.37;;;19.20;98.00;;;;;;5073867;28;20460;-75
2021/08/22 07:36:15;;;;;;;1.53;1.43;;;19.30;98.00;;;;;;5073885;28;20481;-74
2021/08/22 07:38:42;;;;;;;1.70;1.30;;;19.30;98.00;;;;;;5073765;28;20872;-76
2021/08/22 07:41:09;;;;;;;1.30;1.20;;;19.40;98.00;;;;;;5073831;28;20464;-75
2021/08/22 07:43:36;;;;;;;1.30;1.30;;;19.40;98.00;;;;;;5055871;28;20514;-75
2021/08/22 07:46:03;;;;;;;1.30;1.20;;;19.50;98.00;;;;;;5073820;28;20456;-76
2021/08/22 07:48:31;;;;;;;1.30;1.10;;;19.60;98.00;;;;;;5073705;28;20519;-75
2021/08/22 07:50:58;;;;;;;1.70;1.40;;;19.40;98.00;;;;;;5073619;28;20514;-75
2021/08/22 07:53:31;;;;;;;1.67;1.30;;;19.40;98.00;;;;;;5073679;28;20492;-74
2021/08/22 07:55:58;;;;;;;2.03;1.20;;;19.50;98.00;;;;;;5073512;28;20560;-75
2021/08/22 07:58:25;;;;;;;2.10;1.70;;;19.60;98.00;;;;;;5055731;28;20449;-75
2021/08/22 08:00:52;;;;;;;2.83;1.57;;;19.60;98.00;;;;;;5073619;28;20456;-75
2021/08/22 08:03:18;;;;;;;1.43;1.20;;;19.90;98.00;;;;;;5073449;28;20991;-76
2021/08/22 08:05:47;;;;;;;1.40;1.30;;;20.10;98.00;;;;;;5073661;28;20457;-75
2021/08/22 08:08:14;;;;;;;1.30;1.17;;;20.30;98.00;;;;;;5073482;28;20520;-75
2021/08/22 08:10:41;;;;;;;1.50;1.47;;;20.40;98.00;;;;;;5073462;28;20502;-75
2021/08/22 08:13:08;;;;;;;1.93;1.57;;;20.50;98.00;;;;;;5073255;28;20493;-74
2021/08/22 08:15:35;;;;;;;1.33;1.27;;;20.60;98.00;;;;;;5073310;28;20503;-75
2021/08/22 08:18:02;;;;;;;2.27;1.83;;;20.70;98.00;;;;;;5073121;28;20453;-75
2021/08/22 08:20:29;;;;;;;1.77;1.30;;;20.70;98.00;;;;;;5073332;28;20914;-75
2021/08/22 08:22:57;;;;;;;1.20;1.20;;;20.80;98.00;;;;;;5038627;28;20511;-75
2021/08/22 08:25:24;;;;;;;2.27;1.47;;;20.90;98.00;;;;;;5073048;28;20866;-75
2021/08/22 08:27:51;;;;;;;1.57;1.37;;;21.00;98.00;;;;;;5072736;28;20954;-76
2021/08/22 08:30:18;;;;;;;1.20;1.20;;;21.00;98.00;;;;;;5072812;28;20514;-75
2021/08/22 08:32:45;;;;;;;1.30;1.27;;;21.10;98.00;;;;;;5072582;28;20526;-74
2021/08/22 08:35:13;;;;;;;1.30;1.10;;;21.20;98.00;;;;;;5055218;28;20484;-76
2021/08/22 08:37:41;;;;;;;1.53;1.30;;;21.30;98.00;;;;;;5072700;28;20981;-75
2021/08/22 08:40:11;;;;;;;1.57;1.50;;;21.40;98.00;;;;;;5072768;28;20548;-75
2021/08/22 08:42:38;;;;;;;1.47;1.40;;;21.40;98.00;;;;;;5072506;28;20507;-77
2021/08/22 08:45:08;;;;;;;1.20;1.20;;;21.30;98.00;;;;;;5072629;28;20452;-75
2021/08/22 08:47:36;;;;;;;1.37;1.27;;;21.30;98.00;;;;;;5072591;28;20460;-76
2021/08/22 08:50:04;;;;;;;1.60;1.50;;;21.30;98.00;;;;;;5072423;28;20484;-75
2021/08/22 08:52:35;;;;;;;1.40;1.30;;;21.30;98.00;;;;;;5072633;28;20476;-75
2021/08/22 08:55:04;;;;;;;1.87;1.57;;;21.40;98.00;;;;;;5055093;28;20547;-75
2021/08/22 08:57:33;;;;;;;1.50;1.30;;;21.50;98.00;;;;;;5072282;28;20538;-76
2021/08/22 09:00:00;;;;;;;1.33;1.30;;;21.60;98.00;;;;;;5072323;28;20539;-76
2021/08/22 09:02:27;;;;;;;1.30;1.20;;;21.60;98.00;;;;;;5072259;28;20452;-75
2021/08/22 09:05:09;;;;;;;1.43;1.37;;;21.60;98.00;;;;;;5072100;28;20492;-75
2021/08/22 09:08:06;;;;;;;1.60;1.43;;;21.60;98.00;;;;;;5072105;28;20457;-75
2021/08/22 09:11:25;;;;;;;1.40;1.33;;;21.60;98.00;;;;;;5036592;28;20506;-75
2021/08/22 09:14:36;;;;;;;1.50;1.50;;;21.40;98.00;;;;;;5071860;28;20959;-75
2021/08/22 09:17:42;;;;;;;1.30;1.27;;;21.60;98.00;;;;;;5071829;28;20496;-75
2021/08/22 09:20:45;;;;;;;1.40;1.37;;;21.60;98.00;;;;;;5071833;28;20962;-75
2021/08/22 09:23:55;;;;;;;1.20;1.20;;;21.60;98.00;;;;;;5071640;28;20456;-77
2021/08/22 09:26:58;;;;;;;2.10;1.40;;;21.60;98.00;;;;;;5071005;28;20536;-76
2021/08/22 09:30:16;;;;;;;1.80;1.73;;;21.60;98.00;;;;;;5039893;28;20549;-75
2021/08/22 09:33:20;;;;;;;1.90;1.60;;;21.40;98.00;;;;;;5071460;28;20471;-75
2021/08/22 09:36:23;;;;;;;2.10;1.73;;;21.40;98.00;;;;;;5071443;28;20488;-75
2021/08/22 09:39:43;;;;;;;1.30;1.20;;;21.50;98.00;;;;;;5071509;28;20453;-75
2021/08/22 09:42:47;;;;;;;1.30;1.20;;;21.60;98.00;;;;;;5071500;28;20461;-76
2021/08/22 09:46:08;;;;;;;1.50;1.33;;;21.90;98.00;;;;;;5071479;28;20544;-75
2021/08/22 09:49:11;;;;;;;1.83;1.40;;;22.20;98.00;;;;;;5013300;28;20510;-75
2021/08/22 09:52:18;;;;;;;1.97;1.43;;;22.40;98.00;;;;;;5071200;28;20464;-75
2021/08/22 09:55:24;;;;;;;1.90;1.70;;;22.60;98.00;;;;;;5071246;28;20886;-75
2021/08/22 09:58:29;;;;;;;1.63;1.30;;;22.80;98.00;;;;;;5071141;28;20514;-75
2021/08/22 10:01:45;;;;;;;1.60;1.37;;;23.10;98.00;;;;;;5071295;28;20492;-76
2021/08/22 10:04:34;;;;;;;1.80;1.70;;;23.30;98.00;;;;;;5071250;28;20515;-76
2021/08/22 10:07:18;;;;;;;1.57;1.30;;;23.40;98.00;;;;;;5071231;28;20986;-75
2021/08/22 10:09:49;;;;;;;1.30;1.30;;;23.40;98.00;;;;;;5070899;28;20649;-76
2021/08/22 10:12:17;;;;;;;2.30;1.93;;;23.10;98.00;;;;;;5071186;28;20506;-75
2021/08/22 10:14:44;;;;;;;1.87;1.10;;;22.80;98.00;;;;;;5070921;28;20762;-75
2021/08/22 10:17:18;;;;;;;1.30;1.30;;;22.80;98.00;;;;;;5070948;28;20965;-75
2021/08/22 10:19:48;;;;;;;1.97;1.50;;;22.80;98.00;;;;;;5053322;28;20540;-75
2021/08/22 10:22:18;;;;;;;1.30;1.20;;;22.70;98.00;;;;;;5071056;28;20492;-76
2021/08/22 10:24:55;;;;;;;1.57;1.30;;;22.60;98.00;;;;;;5070792;28;20464;-76
2021/08/22 10:27:47;;;;;;;2.37;1.53;;;22.50;98.00;;;;;;5070875;28;20879;-75
2021/08/22 10:30:16;;;;;;;1.30;1.23;;;22.30;98.00;;;;;;5051217;28;20492;-75
2021/08/22 10:33:17;;;;;;;1.83;1.53;;;22.20;98.00;;;;;;5070703;28;20721;-75
2021/08/22 10:35:46;;;;;;;1.40;1.40;;;21.80;98.00;;;;;;5070837;28;20456;-75
2021/08/22 10:38:26;;;;;;;1.70;1.43;;;21.60;98.00;;;;;;5070882;28;20453;-75
2021/08/22 10:40:54;;;;;;;1.60;1.30;;;21.40;98.00;;;;;;5053313;28;20453;-75
2021/08/22 10:43:40;;;;;;;1.50;1.37;;;21.30;98.00;;;;;;5070779;28;20468;-76
2021/08/22 10:46:08;;;;;;;1.40;1.30;;;21.20;98.00;;;;;;5070827;28;20518;-75
2021/08/22 10:48:50;;;;;;;3.00;1.40;;;21.20;98.00;;;;;;5070796;28;20510;-75
2021/08/22 10:51:19;;;;;;;1.53;1.37;;;21.30;98.00;;;;;;5053083;28;20455;-75
2021/08/22 10:53:50;;;;;;;4.30;1.77;;;21.30;98.00;;;;;;5070682;28;20487;-75
2021/08/22 10:56:36;;;;;;;2.03;1.63;;;21.20;98.00;;;;;;5070796;28;20459;-74
2021/08/22 10:59:06;;;;;;;1.20;1.10;;;21.10;98.00;;;;;;5070605;28;20467;-75
2021/08/22 11:01:33;;;;;;;1.37;1.27;;;21.30;98.00;;;;;;5070615;28;20866;-75
2021/08/22 11:04:07;;;;;;;2.23;1.70;;;21.40;98.00;;;;;;5070587;28;20518;-75
2021/08/22 11:06:36;;;;;;;2.37;1.77;;;21.60;98.00;;;;;;5074280;28;20697;-75
2021/08/22 11:09:04;;;;;;;1.70;1.40;;;21.70;98.00;;;;;;5074251;28;20542;-75
2021/08/22 11:11:32;;;;;;;2.80;1.63;;;21.70;98.00;;;;;;5074460;28;20488;-75
2021/08/22 11:14:01;;;;;;;1.73;1.40;;;21.70;98.00;;;;;;5074297;28;20941;-74
2021/08/22 11:16:45;;;;;;;1.33;1.20;;;21.70;98.00;;;;;;5074317;28;20462;-75
2021/08/22 11:19:12;;;;;;;1.30;1.10;;;21.70;98.00;;;;;;5074107;28;20464;-76
2021/08/22 11:21:41;;;;;;;1.60;1.40;;;21.50;98.00;;;;;;5074226;28;20522;-75
2021/08/22 11:24:08;;;;;;;1.87;1.60;;;21.30;98.00;;;;;;5074143;28;20465;-75
2021/08/22 11:26:35;;;;;;;1.20;1.00;;;21.20;98.00;;;;;;5074052;28;20448;-75
2021/08/22 11:29:03;;;;;;;1.30;1.30;;;21.30;98.00;;;;;;5073801;28;20575;-74
2021/08/22 11:31:31;;;;;;;2.07;1.93;;;21.20;98.00;;;;;;5073982;28;20829;-74
2021/08/22 11:34:10;;;;;;;1.77;1.40;;;21.10;98.00;;;;;;5074017;28;20496;-75
2021/08/22 11:36:41;;;;;;;1.40;1.30;;;21.00;98.00;;;;;;5074078;28;20452;-75
2021/08/22 11:39:09;;;;;;;2.67;1.73;;;20.70;98.00;;;;;;5074203;28;20456;-75
2021/08/22 11:41:37;;;;;;;2.10;1.17;;;20.60;98.00;;;;;;5073856;28;20456;-76
2021/08/22 11:44:06;;;;;;;1.30;1.30;;;20.50;98.00;;;;;;5073967;28;20654;-75
2021/08/22 11:46:34;;;;;;;1.73;1.70;;;20.30;98.00;;;;;;5073660;28;20518;-75
2021/08/22 11:49:02;;;;;;;1.30;1.30;;;20.40;98.00;;;;;;5073755;28;20533;-76
2021/08/22 11:51:30;;;;;;;1.60;1.47;;;20.50;98.00;;;;;;5073775;28;20457;-75
2021/08/22 11:53:59;;;;;;;1.77;1.30;;;20.60;98.00;;;;;;5073807;28;20491;-75
2021/08/22 11:56:26;;;;;;;1.47;1.27;;;20.30;98.00;;;;;;5073593;28;20473;-75
2021/08/22 11:58:55;;;;;;;2.30;1.57;;;20.00;98.00;;;;;;5073749;28;20518;-74
2021/08/22 12:01:27;;;;;;;1.40;1.40;;;20.00;98.00;;;;;;5073559;28;20544;-75
2021/08/22 12:04:03;;;;;;;1.30;1.20;;;19.80;98.00;;;;;;5073489;28;20526;-76
2021/08/22 12:06:31;;;;;;;1.40;1.20;;;19.50;98.00;;;;;;5073459;28;20530;-75
2021/08/22 12:09:00;;;;;;;1.90;1.43;;;19.60;98.00;;;;;;5073393;28;20445;-75
2021/08/22 12:11:32;;;;;;;1.83;1.70;;;19.60;98.00;;;;;;5073711;28;20460;-75
2021/08/22 12:14:15;;;;;;;1.60;1.50;;;19.50;98.00;;;;;;5073595;28;20522;-75
2021/08/22 12:16:53;;;;;;;1.20;1.10;;;19.40;98.00;;;;;;5072926;28;20808;-75
2021/08/22 12:19:22;;;;;;;1.40;1.20;;;19.30;98.00;;;;;;5073363;28;20877;-74
2021/08/22 12:21:51;;;;;;;1.20;1.10;;;18.90;98.00;;;;;;5073382;28;20865;-75
2021/08/22 12:24:24;;;;;;;1.20;1.10;;;18.80;98.00;;;;;;5073312;28;20476;-76
2021/08/22 12:26:52;;;;;;;1.20;1.10;;;18.90;98.00;;;;;;5073384;28;20488;-75
2021/08/22 12:29:27;;;;;;;1.43;1.20;;;19.00;98.00;;;;;;5073246;28;20516;-75
2021/08/22 12:31:55;;;;;;;1.10;1.00;;;19.10;98.00;;;;;;5073000;28;20518;-75
2021/08/22 12:34:24;;;;;;;1.10;1.00;;;19.40;98.00;;;;;;5072785;28;20453;-75
2021/08/22 12:36:51;;;;;;;1.40;1.20;;;19.60;98.00;;;;;;5072969;28;20878;-75
2021/08/22 12:39:19;;;;;;;1.43;1.27;;;19.60;98.00;;;;;;5072882;28;20504;-74
2021/08/22 12:41:49;;;;;;;1.30;1.10;;;19.60;98.00;;;;;;5072737;28;20939;-75
2021/08/22 12:44:18;;;;;;;1.20;1.20;;;19.70;98.00;;;;;;5072610;28;20540;-75
2021/08/22 12:46:48;;;;;;;1.23;1.20;;;19.80;98.00;;;;;;5056201;28;20461;-75
2021/08/22 12:49:16;;;;;;;1.20;1.20;;;19.90;98.00;;;;;;5074114;28;20501;-75
2021/08/22 12:51:51;;;;;;;1.40;1.13;;;19.90;98.00;;;;;;5056856;28;20449;-75
2021/08/22 12:54:22;;;;;;;1.20;1.10;;;19.90;98.00;;;;;;5073854;28;20456;-76
2021/08/22 12:56:50;;;;;;;1.20;1.10;;;19.80;98.00;;;;;;5074275;28;20601;-75
2021/08/22 12:59:19;;;;;;;1.47;1.00;;;19.70;98.00;;;;;;5072558;28;20492;-75
2021/08/22 13:01:47;;;;;;;1.30;1.13;;;19.70;98.00;;;;;;5054747;28;20445;-75
2021/08/22 13:04:16;;;;;;;1.20;1.10;;;19.50;98.00;;;;;;5072217;28;20514;-75
2021/08/22 13:06:43;;;;;;;1.30;1.17;;;19.30;98.00;;;;;;5072124;28;20485;-75
2021/08/22 13:09:10;;;;;;;1.10;1.00;;;19.30;98.00;;;;;;5072100;28;20457;-75